Time;durP1;ratioP1;P1;durP2;ratioP2;P2;SDS_P1;SDS_P2;PMS_P1;PMS_P2;Temp;Humidity;BMP_temperature;BMP_pressure;BME280_temperature;BME280_humidity;BME280_pressure;Samples;Min_cycle;Max_cycle;Signal;HPM_P1;HPM_P2
2022/10/12 00:01:27;;;;;;;20.42;7.15;;;;;;;20.25;63.62;99197.13;5090916;28;20016;-44
2022/10/12 00:03:53;;;;;;;17.85;6.88;;;;;;;20.47;63.11;99202.41;5092158;28;20075;-44
2022/10/12 00:06:21;;;;;;;15.02;5.80;;;;;;;20.64;62.87;99197.00;5092249;28;20039;-44
2022/10/12 00:08:49;;;;;;;12.93;6.28;;;;;;;20.71;62.17;99201.06;5092369;28;20038;-44
2022/10/12 00:11:24;;;;;;;23.65;6.43;;;;;;;20.73;62.19;99196.28;5092360;28;20394;-44
2022/10/12 00:13:50;;;;;;;23.35;6.20;;;;;;;20.81;62.35;99203.00;5092123;28;20061;-44
2022/10/12 00:16:18;;;;;;;15.55;6.30;;;;;;;20.92;61.99;99198.53;5092070;28;20024;-44
2022/10/12 00:18:44;;;;;;;21.80;6.47;;;;;;;21.12;61.50;99204.03;5091769;28;20044;-44
2022/10/12 00:21:13;;;;;;;17.60;6.70;;;;;;;21.26;60.86;99206.25;5091952;28;20061;-44
2022/10/12 00:23:40;;;;;;;16.50;6.40;;;;;;;21.31;60.79;99207.09;5090689;28;20020;-44
2022/10/12 00:26:09;;;;;;;19.02;7.07;;;;;;;21.35;60.93;99200.19;5090551;28;20031;-44
2022/10/12 00:28:35;;;;;;;17.58;7.20;;;;;;;21.16;60.72;99212.31;5073707;28;20028;-44
2022/10/12 00:31:05;;;;;;;15.02;6.38;;;;;;;21.00;61.06;99214.09;5091842;28;20502;-44
2022/10/12 00:33:31;;;;;;;14.48;6.22;;;;;;;20.94;61.57;99204.44;5076360;28;20035;-44
2022/10/12 00:35:57;;;;;;;23.45;8.00;;;;;;;20.92;61.64;99207.34;5098559;28;20016;-44
2022/10/12 00:38:23;;;;;;;17.38;7.47;;;;;;;20.92;61.65;99206.56;5098698;28;20107;-44
2022/10/12 00:40:49;;;;;;;17.27;8.32;;;;;;;20.94;61.74;99204.44;5097203;28;20017;-44
2022/10/12 00:43:45;;;;;;;19.13;6.50;;;;;;;20.94;61.41;99201.75;5098559;28;20027;-44
2022/10/12 00:46:24;;;;;;;17.67;7.05;;;;;;;20.90;61.66;99208.66;5080493;28;20028;-44
2022/10/12 00:49:05;;;;;;;24.02;7.65;;;;;;;20.78;62.04;99206.16;5097098;28;20054;-44
2022/10/12 00:51:31;;;;;;;25.27;7.53;;;;;;;20.87;62.13;99210.00;5098741;28;20072;-45
2022/10/12 00:54:05;;;;;;;18.05;7.90;;;;;;;20.86;61.80;99203.03;5097098;28;20111;-45
2022/10/12 00:56:35;;;;;;;19.50;6.70;;;;;;;20.82;62.04;99201.94;5097161;28;20040;-44
2022/10/12 00:59:04;;;;;;;18.00;7.03;;;;;;;20.82;62.28;99201.94;5098352;28;20043;-45
2022/10/12 01:01:33;;;;;;;23.33;6.72;;;;;;;20.92;61.95;99207.34;5098398;28;20024;-44
2022/10/12 01:03:59;;;;;;;19.75;6.43;;;;;;;20.99;62.01;99206.31;5098375;28;20080;-44
2022/10/12 01:06:25;;;;;;;18.35;7.63;;;;;;;20.76;61.68;99208.28;5098241;28;20016;-44
2022/10/12 01:08:54;;;;;;;24.88;7.32;;;;;;;20.44;62.73;99200.25;5098214;28;20030;-44
2022/10/12 01:11:19;;;;;;;17.10;6.97;;;;;;;20.37;63.05;99205.78;5098227;28;20027;-44
2022/10/12 01:13:45;;;;;;;24.17;7.18;;;;;;;20.33;63.40;99199.34;5098266;28;20389;-44
2022/10/12 01:16:45;;;;;;;19.58;6.85;;;;;;;20.32;63.59;99197.72;5096896;28;20489;-44
2022/10/12 01:19:42;;;;;;;23.23;7.35;;;;;;;20.17;63.92;99194.91;5096746;28;20391;-44
2022/10/12 01:22:15;;;;;;;17.48;6.68;;;;;;;20.18;63.78;99196.50;5096873;28;20481;-44
2022/10/12 01:25:07;;;;;;;21.48;7.00;;;;;;;20.24;64.24;99191.00;5096842;28;20451;-44
2022/10/12 01:28:01;;;;;;;20.83;7.43;;;;;;;20.23;64.26;99188.59;5096825;28;20036;-44
2022/10/12 01:30:34;;;;;;;20.88;7.63;;;;;;;20.00;64.26;99195.00;5098089;28;20050;-45
2022/10/12 01:33:25;;;;;;;26.75;7.97;;;;;;;19.92;64.79;99191.72;5098073;28;20028;-44
2022/10/12 01:36:03;;;;;;;20.92;6.45;;;;;;;19.92;65.34;99190.91;5098075;28;20485;-44
2022/10/12 01:38:53;;;;;;;14.02;7.70;;;;;;;20.08;64.54;99182.03;5096821;28;20032;-44
2022/10/12 01:41:25;;;;;;;15.82;7.22;;;;;;;20.08;64.06;99182.03;5098076;28;20393;-44
2022/10/12 01:43:51;;;;;;;20.02;7.60;;;;;;;19.96;64.83;99186.72;5098012;28;20032;-44
2022/10/12 01:46:17;;;;;;;21.20;7.55;;;;;;;20.03;64.78;99184.66;5093671;28;20070;-44
2022/10/12 01:48:46;;;;;;;18.02;7.65;;;;;;;19.95;64.31;99177.88;5094668;28;20428;-44
2022/10/12 01:51:18;;;;;;;31.40;18.60;;;;;;;19.74;65.39;99171.53;5094690;28;20016;-44
2022/10/12 01:53:56;;;;;;;16.20;8.00;;;;;;;19.54;65.38;99174.72;5094737;28;20028;-44
2022/10/12 01:56:45;;;;;;;14.52;7.95;;;;;;;19.35;65.97;99168.88;5094608;28;20061;-44
2022/10/12 01:59:20;;;;;;;14.70;8.30;;;;;;;19.18;66.44;99172.66;5094599;28;20107;-44
2022/10/12 02:01:57;;;;;;;24.92;8.65;;;;;;;19.13;67.71;99168.03;5094795;28;20056;-44
2022/10/12 02:04:34;;;;;;;25.60;8.77;;;;;;;19.45;67.16;99162.88;5094437;28;20063;-44
2022/10/12 02:07:33;;;;;;;24.20;8.20;;;;;;;19.71;66.34;99157.91;5094328;28;20559;-44
2022/10/12 02:10:03;;;;;;;22.58;13.73;;;;;;;20.08;65.97;99155.41;5092420;28;20571;-44
2022/10/12 02:12:31;;;;;;;25.42;13.48;;;;;;;20.23;64.94;99151.28;5093028;28;20020;-44
2022/10/12 02:15:04;;;;;;;21.33;14.38;;;;;;;20.29;64.95;99147.59;5092853;28;20459;-44
2022/10/12 02:17:33;;;;;;;27.75;9.00;;;;;;;20.40;64.47;99154.63;5093981;28;20095;-44
2022/10/12 02:20:02;;;;;;;23.98;8.48;;;;;;;20.45;64.33;99144.00;5092938;28;20386;-45
2022/10/12 02:22:33;;;;;;;17.02;7.25;;;;;;;20.64;63.73;99136.44;5094397;28;20455;-44
2022/10/12 02:25:02;;;;;;;16.85;7.82;;;;;;;20.54;62.81;99147.81;5094374;28;20800;-44
2022/10/12 02:27:29;;;;;;;21.65;8.18;;;;;;;20.37;63.15;99141.81;5092610;28;20028;-44
2022/10/12 02:29:55;;;;;;;20.75;7.90;;;;;;;20.17;63.49;99137.09;5092726;28;20056;-44
2022/10/12 02:32:44;;;;;;;22.88;8.82;;;;;;;19.99;64.12;99137.44;5093962;28;20441;-44
2022/10/12 02:35:22;;;;;;;17.65;10.27;;;;;;;19.89;64.80;99144.25;5093962;28;20423;-44
2022/10/12 02:37:51;;;;;;;14.25;8.40;;;;;;;19.85;64.94;99140.50;5092572;28;20024;-45
2022/10/12 02:40:35;;;;;;;13.07;7.72;;;;;;;19.74;64.96;99146.78;5092470;28;20031;-45
2022/10/12 02:43:16;;;;;;;25.98;8.95;;;;;;;19.55;65.25;99141.72;5092491;28;20031;-44
2022/10/12 02:45:45;;;;;;;24.45;9.35;;;;;;;19.36;65.76;99138.56;5092574;28;20081;-44
2022/10/12 02:48:16;;;;;;;21.17;8.38;;;;;;;19.25;66.27;99131.47;5093573;28;20051;-44
2022/10/12 02:50:43;;;;;;;18.13;8.60;;;;;;;19.13;66.54;99141.44;5092257;28;20036;-44
2022/10/12 02:53:11;;;;;;;16.65;9.98;;;;;;;19.00;67.27;99145.25;5093556;28;20379;-44
2022/10/12 02:55:47;;;;;;;14.90;7.63;;;;;;;19.01;68.00;99146.03;5093392;28;20020;-44
2022/10/12 02:58:13;;;;;;;22.60;8.88;;;;;;;19.28;67.99;99138.19;5093390;28;20056;-44
2022/10/12 03:00:38;;;;;;;18.27;8.93;;;;;;;19.56;67.20;99142.53;5093309;28;20059;-45
2022/10/12 03:03:04;;;;;;;14.25;7.40;;;;;;;19.87;66.43;99140.25;5092027;28;20024;-44
2022/10/12 03:05:30;;;;;;;30.63;8.57;;;;;;;20.03;65.39;99139.34;5093305;28;20246;-44
2022/10/12 03:07:55;;;;;;;21.67;11.52;;;;;;;20.07;64.98;99142.31;5093161;28;20024;-44
2022/10/12 03:10:21;;;;;;;18.45;8.90;;;;;;;20.00;65.12;99136.38;5092138;28;20020;-44
2022/10/12 03:12:46;;;;;;;24.88;8.23;;;;;;;20.09;65.20;99142.88;5093122;28;20032;-44
2022/10/12 03:15:12;;;;;;;20.98;8.52;;;;;;;20.34;64.16;99142.28;5093103;28;20023;-44
2022/10/12 03:17:38;;;;;;;24.13;11.10;;;;;;;20.29;63.76;99142.25;5091454;28;20044;-44
2022/10/12 03:20:04;;;;;;;19.83;9.48;;;;;;;20.17;63.99;99133.63;5093003;28;20024;-44
2022/10/12 03:22:29;;;;;;;28.42;9.70;;;;;;;20.03;64.24;99135.88;5091627;28;20048;-44
2022/10/12 03:24:55;;;;;;;29.20;10.20;;;;;;;19.94;64.78;99136.34;5092845;28;20059;-44
2022/10/12 03:27:21;;;;;;;24.38;10.02;;;;;;;19.93;64.77;99145.38;5092730;28;20091;-44
2022/10/12 03:29:47;;;;;;;34.78;10.82;;;;;;;19.64;65.48;99146.59;5091615;28;20056;-44
2022/10/12 03:32:14;;;;;;;31.15;10.68;;;;;;;19.53;66.71;99154.47;5091403;28;20051;-44
2022/10/12 03:34:40;;;;;;;23.63;10.52;;;;;;;19.67;66.71;99159.44;5092711;28;20020;-44
2022/10/12 03:37:06;;;;;;;26.58;10.70;;;;;;;19.86;65.88;99158.09;5092653;28;20521;-44
2022/10/12 03:39:31;;;;;;;22.30;9.93;;;;;;;19.91;65.31;99152.81;5092631;28;20051;-44
2022/10/12 03:41:57;;;;;;;28.45;10.93;;;;;;;19.96;65.18;99154.75;5092546;28;20032;-44
2022/10/12 03:44:23;;;;;;;32.42;10.07;;;;;;;20.16;65.00;99151.47;5092775;28;20020;-44
2022/10/12 03:46:48;;;;;;;33.17;10.20;;;;;;;20.32;64.00;99144.41;5092361;28;20027;-44
2022/10/12 03:49:14;;;;;;;29.80;10.90;;;;;;;20.24;63.51;99143.03;5091067;28;20031;-44
2022/10/12 03:51:40;;;;;;;24.35;11.40;;;;;;;20.03;63.54;99139.34;5092392;28;20028;-44
2022/10/12 03:54:06;;;;;;;29.80;13.27;;;;;;;19.77;64.33;99142.81;5092346;28;20024;-44
2022/10/12 03:56:31;;;;;;;24.80;11.07;;;;;;;19.60;65.23;99142.81;5092331;28;20131;-44
2022/10/12 03:58:57;;;;;;;26.30;11.13;;;;;;;19.49;65.14;99145.34;5092311;28;20024;-44
2022/10/12 04:01:23;;;;;;;27.65;11.65;;;;;;;19.47;65.73;99147.47;5092254;28;20024;-44
2022/10/12 04:03:49;;;;;;;24.05;11.20;;;;;;;19.53;65.47;99154.47;5090915;28;20056;-44
2022/10/12 04:06:14;;;;;;;22.73;11.15;;;;;;;19.58;65.46;99148.41;5092193;28;20051;-44
2022/10/12 04:08:40;;;;;;;29.58;12.48;;;;;;;19.51;65.18;99155.78;5089997;28;20060;-44
2022/10/12 04:11:06;;;;;;;22.52;11.25;;;;;;;19.41;65.53;99160.97;5090814;28;20528;-44
2022/10/12 04:13:32;;;;;;;36.08;11.65;;;;;;;19.34;66.49;99158.50;5092015;28;20114;-44
2022/10/12 04:16:03;;;;;;;31.15;10.10;;;;;;;19.57;66.18;99162.78;5091956;28;20059;-44
2022/10/12 04:18:28;;;;;;;24.80;10.85;;;;;;;19.74;65.61;99163.56;5091841;28;20127;-44
2022/10/12 04:20:54;;;;;;;28.08;11.10;;;;;;;19.98;65.19;99160.63;5090635;28;20510;-44
2022/10/12 04:23:20;;;;;;;25.00;10.18;;;;;;;20.14;64.15;99153.56;5073838;28;20024;-44
2022/10/12 04:25:45;;;;;;;29.80;14.88;;;;;;;20.24;63.95;99166.19;5091828;28;20516;-44
2022/10/12 04:28:11;;;;;;;24.92;10.93;;;;;;;20.30;63.12;99157.19;5091856;28;20539;-44
2022/10/12 04:30:37;;;;;;;34.78;10.75;;;;;;;20.12;63.43;99161.84;5091802;28;20040;-44
2022/10/12 04:33:04;;;;;;;34.38;14.07;;;;;;;20.05;63.85;99165.75;5091840;28;20564;-44
2022/10/12 04:35:30;;;;;;;30.23;11.55;;;;;;;20.06;63.79;99157.50;5092110;28;20367;-44
2022/10/12 04:37:56;;;;;;;28.02;11.55;;;;;;;19.97;64.33;99160.88;5091856;28;20020;-44
2022/10/12 04:40:22;;;;;;;23.23;11.80;;;;;;;19.83;64.01;99165.78;5090451;28;20058;-44
2022/10/12 04:42:48;;;;;;;24.05;13.18;;;;;;;19.75;64.59;99162.47;5073767;28;20107;-44
2022/10/12 04:45:13;;;;;;;30.02;10.75;;;;;;;19.84;64.79;99162.03;5091733;28;20031;-44
2022/10/12 04:47:39;;;;;;;31.02;11.77;;;;;;;19.94;64.76;99168.31;5091612;28;20031;-44
2022/10/12 04:50:05;;;;;;;31.60;12.52;;;;;;;19.91;64.15;99175.97;5090408;28;20085;-44
2022/10/12 04:52:31;;;;;;;31.13;12.48;;;;;;;19.85;64.81;99164.47;5091659;28;20032;-44
2022/10/12 04:54:57;;;;;;;25.50;12.70;;;;;;;19.90;64.22;99171.69;5091636;28;20024;-44
2022/10/12 04:57:22;;;;;;;24.80;12.88;;;;;;;19.81;64.17;99170.53;5090471;28;20485;-44
2022/10/12 04:59:48;;;;;;;30.20;14.05;;;;;;;19.68;64.47;99177.81;5090281;28;20030;-44
2022/10/12 05:02:14;;;;;;;24.33;13.43;;;;;;;19.51;64.73;99175.19;5091602;28;20424;-44
2022/10/12 05:04:39;;;;;;;35.00;14.57;;;;;;;19.43;65.31;99182.81;5091552;28;20024;-44
2022/10/12 05:07:05;;;;;;;31.95;14.70;;;;;;;19.30;65.85;99179.47;5091438;28;20501;-44
2022/10/12 05:09:31;;;;;;;27.80;15.13;;;;;;;19.39;66.01;99179.84;5091502;28;20489;-44
2022/10/12 05:11:56;;;;;;;27.42;13.93;;;;;;;19.41;65.81;99167.09;5090173;28;20052;-44
2022/10/12 05:14:22;;;;;;;26.90;12.48;;;;;;;19.40;66.19;99181.47;5090169;28;20073;-44
2022/10/12 05:16:48;;;;;;;26.05;13.93;;;;;;;19.57;65.88;99178.75;5090148;28;20048;-44
2022/10/12 05:19:13;;;;;;;32.92;13.63;;;;;;;19.43;65.53;99172.97;5091813;28;20403;-44
2022/10/12 05:21:39;;;;;;;27.80;14.00;;;;;;;19.38;65.82;99180.06;5093888;28;20020;-44
2022/10/12 05:24:05;;;;;;;40.80;15.73;;;;;;;19.40;66.19;99185.97;5095291;28;20114;-44
2022/10/12 05:26:31;;;;;;;24.40;14.35;;;;;;;19.43;65.78;99182.81;5093854;28;20028;-44
2022/10/12 05:28:57;;;;;;;30.23;15.13;;;;;;;19.22;65.78;99185.22;5094986;28;20426;-44
2022/10/12 05:31:23;;;;;;;25.50;15.00;;;;;;;19.11;66.69;99180.78;5095104;28;20024;-44
2022/10/12 05:33:48;;;;;;;35.80;15.20;;;;;;;19.06;66.68;99180.72;5095033;28;20024;-44
2022/10/12 05:36:14;;;;;;;49.63;16.60;;;;;;;18.88;67.04;99174.59;5094996;28;20091;-44
2022/10/12 05:38:40;;;;;;;54.13;14.70;;;;;;;18.98;67.96;99186.44;5095163;28;20063;-44
2022/10/12 05:41:05;;;;;;;39.50;13.55;;;;;;;19.18;67.69;99186.75;5094888;28;20026;-44
2022/10/12 05:43:31;;;;;;;32.53;13.50;;;;;;;19.49;67.02;99185.28;5094865;28;20024;-44
2022/10/12 05:45:57;;;;;;;29.00;13.80;;;;;;;19.61;66.27;99179.84;5093469;28;20386;-44
2022/10/12 05:48:23;;;;;;;42.13;14.45;;;;;;;19.63;65.97;99184.94;5094681;28;20048;-44
2022/10/12 05:50:53;;;;;;;35.63;13.65;;;;;;;19.72;66.01;99186.97;5094721;28;20043;-44
2022/10/12 05:53:22;;;;;;;44.13;13.73;;;;;;;19.86;65.37;99183.91;5095029;28;20379;-44
2022/10/12 05:55:56;;;;;;;25.88;12.73;;;;;;;19.88;64.80;99190.63;5094647;28;20020;-44
2022/10/12 05:58:23;;;;;;;32.35;12.80;;;;;;;19.75;64.93;99186.44;5093229;28;20379;-44
2022/10/12 06:00:48;;;;;;;26.35;13.45;;;;;;;19.81;65.11;99194.50;5094467;28;20489;-45
2022/10/12 06:03:14;;;;;;;21.50;12.73;;;;;;;19.84;64.82;99191.34;5094458;28;20024;-45
2022/10/12 06:05:41;;;;;;;34.13;13.18;;;;;;;19.79;64.89;99189.44;5094446;28;20024;-45
2022/10/12 06:08:07;;;;;;;38.13;14.75;;;;;;;19.77;64.62;99191.53;5092938;28;20032;-44
2022/10/12 06:10:34;;;;;;;40.65;14.95;;;;;;;19.47;64.87;99191.94;5094252;28;20528;-45
2022/10/12 06:13:00;;;;;;;30.42;14.00;;;;;;;19.34;66.11;99201.06;5094335;28;20024;-45
2022/10/12 06:15:26;;;;;;;28.27;14.93;;;;;;;19.25;66.06;99202.53;5094255;28;20027;-45
2022/10/12 06:17:52;;;;;;;25.40;15.85;;;;;;;19.18;66.25;99199.25;5092653;28;20036;-44
2022/10/12 06:20:17;;;;;;;36.30;15.07;;;;;;;19.08;66.54;99199.91;5092893;28;20035;-45
2022/10/12 06:22:43;;;;;;;26.08;14.10;;;;;;;19.18;67.27;99197.38;5092876;28;20021;-44
2022/10/12 06:25:09;;;;;;;27.83;14.32;;;;;;;19.45;66.78;99204.66;5094114;28;20016;-44
2022/10/12 06:27:34;;;;;;;23.35;14.38;;;;;;;19.64;65.53;99199.84;5093965;28;20048;-44
2022/10/12 06:30:00;;;;;;;25.27;13.85;;;;;;;19.61;65.23;99200.34;5093912;28;20471;-44
2022/10/12 06:32:26;;;;;;;28.02;12.98;;;;;;;19.60;65.84;99193.41;5092020;28;20020;-44
2022/10/12 06:34:51;;;;;;;28.25;12.80;;;;;;;19.82;65.67;99198.78;5092626;28;20055;-45
2022/10/12 06:37:17;;;;;;;20.10;13.60;;;;;;;19.95;64.56;99207.19;5093866;28;20022;-44
2022/10/12 06:39:43;;;;;;;28.45;13.43;;;;;;;19.93;64.58;99201.31;5093794;28;20533;-44
2022/10/12 06:42:10;;;;;;;23.27;13.48;;;;;;;19.97;64.31;99203.50;5092435;28;20055;-44
2022/10/12 06:44:35;;;;;;;33.33;13.98;;;;;;;20.00;64.01;99206.47;5093681;28;20400;-44
2022/10/12 06:47:01;;;;;;;29.20;15.23;;;;;;;19.97;63.93;99208.81;5093602;28;20111;-44
2022/10/12 06:49:27;;;;;;;28.30;14.85;;;;;;;19.91;64.24;99215.94;5093542;28;20024;-44
2022/10/12 06:51:52;;;;;;;34.63;15.20;;;;;;;19.83;64.18;99213.72;5093472;28;20020;-44
2022/10/12 06:54:18;;;;;;;33.83;13.30;;;;;;;19.69;64.73;99210.59;5092180;28;20063;-44
2022/10/12 06:56:44;;;;;;;27.77;14.15;;;;;;;19.70;64.80;99217.53;5093499;28;20027;-44
2022/10/12 06:59:12;;;;;;;33.83;15.63;;;;;;;19.61;65.18;99221.66;5092104;28;20490;-44
2022/10/12 07:01:38;;;;;;;33.90;13.77;;;;;;;19.53;65.54;99221.03;5108940;28;20054;-44
2022/10/12 07:04:04;;;;;;;25.55;15.05;;;;;;;19.65;65.53;99230.78;5092193;28;20388;-44
2022/10/12 07:06:30;;;;;;;23.80;15.73;;;;;;;19.52;65.23;99230.06;5091996;28;20115;-44
2022/10/12 07:08:56;;;;;;;30.13;14.75;;;;;;;19.43;66.14;99233.41;5091842;28;20050;-44
2022/10/12 07:11:22;;;;;;;31.95;15.10;;;;;;;19.65;66.19;99230.78;5093107;28;20074;-44
2022/10/12 07:13:48;;;;;;;31.50;14.55;;;;;;;19.88;65.62;99227.06;5093095;28;20023;-44
2022/10/12 07:16:14;;;;;;;27.13;15.02;;;;;;;20.05;64.90;99225.16;5093071;28;20410;-44
2022/10/12 07:18:40;;;;;;;32.40;13.30;;;;;;;20.16;64.42;99226.06;5092833;28;20044;-44
2022/10/12 07:21:06;;;;;;;32.42;13.82;;;;;;;20.21;64.30;99231.47;5091639;28;20114;-44
2022/10/12 07:23:33;;;;;;;27.70;14.00;;;;;;;20.22;63.85;99234.94;5092974;28;20493;-44
2022/10/12 07:26:00;;;;;;;47.10;14.75;;;;;;;20.29;64.03;99238.22;5091629;28;20073;-44
2022/10/12 07:28:26;;;;;;;38.10;14.68;;;;;;;20.52;63.61;99231.78;5091532;28;20111;-44
2022/10/12 07:30:52;;;;;;;42.67;15.30;;;;;;;20.77;63.02;99241.13;5093059;28;20016;-44
2022/10/12 07:33:18;;;;;;;57.83;15.13;;;;;;;20.76;62.47;99237.63;5092766;28;20367;-45
2022/10/12 07:35:53;;;;;;;33.00;16.35;;;;;;;20.53;61.76;99242.19;5092732;28;20027;-44
2022/10/12 07:38:19;;;;;;;32.58;14.77;;;;;;;20.08;63.18;99243.34;5092994;28;20020;-44
2022/10/12 07:40:44;;;;;;;34.63;16.10;;;;;;;20.14;63.89;99238.84;5092649;28;20512;-44
2022/10/12 07:43:10;;;;;;;45.40;17.35;;;;;;;20.31;63.67;99247.56;5091625;28;20020;-44
2022/10/12 07:45:36;;;;;;;41.97;16.70;;;;;;;20.32;63.39;99246.53;5092482;28;20035;-44
2022/10/12 07:48:01;;;;;;;38.28;17.27;;;;;;;20.16;63.23;99250.06;5091126;28;20024;-44
2022/10/12 07:50:27;;;;;;;33.97;17.15;;;;;;;20.17;63.71;99254.34;5092398;28;20016;-44
2022/10/12 07:52:53;;;;;;;39.00;18.33;;;;;;;19.83;63.82;99251.81;5092411;28;20032;-44
2022/10/12 07:55:18;;;;;;;37.90;19.00;;;;;;;19.50;65.05;99255.34;5092598;28;20027;-44
2022/10/12 07:57:44;;;;;;;34.70;18.73;;;;;;;19.29;65.47;99255.00;5092377;28;20482;-44
2022/10/12 08:00:10;;;;;;;33.97;17.88;;;;;;;19.19;66.40;99262.84;5092262;28;20446;-44
2022/10/12 08:02:36;;;;;;;38.85;18.15;;;;;;;19.29;66.50;99265.66;5092292;28;20055;-44
2022/10/12 08:05:02;;;;;;;35.45;18.63;;;;;;;19.23;66.40;99255.19;5092179;28;20051;-44
2022/10/12 08:07:27;;;;;;;40.72;19.50;;;;;;;19.31;66.80;99254.78;5092027;28;20023;-44
2022/10/12 08:09:53;;;;;;;44.50;19.08;;;;;;;19.46;66.32;99257.69;5090843;28;20023;-44
2022/10/12 08:12:19;;;;;;;52.17;19.70;;;;;;;19.51;66.03;99251.63;5092078;28;20442;-44
2022/10/12 08:14:45;;;;;;;51.10;20.33;;;;;;;19.56;65.91;99255.16;5092119;28;20541;-44
2022/10/12 08:17:11;;;;;;;60.05;23.50;;;;;;;19.27;65.68;99254.44;5092306;28;20028;-45
2022/10/12 08:19:36;;;;;;;52.50;21.50;;;;;;;19.05;66.93;99258.91;5091768;28;20097;-44
2022/10/12 08:22:02;;;;;;;97.50;29.00;;;;;;;18.96;66.85;99253.97;5091960;28;20367;-44
2022/10/12 08:24:28;;;;;;;52.83;21.55;;;;;;;18.60;68.18;99251.75;5092012;28;20402;-44
2022/10/12 08:26:54;;;;;;;44.15;20.50;;;;;;;18.83;68.61;99242.84;5091958;28;20030;-44
2022/10/12 08:29:19;;;;;;;42.00;19.70;;;;;;;19.12;67.90;99257.69;5090506;28;20030;-44
2022/10/12 08:31:48;;;;;;;44.83;21.02;;;;;;;19.34;67.02;99256.97;5092104;28;20039;-44
2022/10/12 08:34:14;;;;;;;43.58;21.92;;;;;;;19.44;67.02;99261.63;5092084;28;20028;-44
2022/10/12 08:36:40;;;;;;;53.85;21.80;;;;;;;19.67;66.68;99263.28;5091794;28;20031;-44
2022/10/12 08:39:07;;;;;;;48.05;22.80;;;;;;;19.69;66.06;99266.50;5091871;28;20019;-44
2022/10/12 08:41:41;;;;;;;47.20;20.80;;;;;;;19.66;66.71;99269.66;5092018;28;20031;-44
2022/10/12 08:44:29;;;;;;;52.83;22.37;;;;;;;19.86;66.55;99267.31;5090586;28;20444;-44
2022/10/12 08:46:58;;;;;;;45.38;20.95;;;;;;;20.10;65.64;99270.53;5091789;28;20254;-44
2022/10/12 08:49:27;;;;;;;40.42;22.40;;;;;;;20.42;65.51;99272.47;5091933;28;20024;-44
2022/10/12 08:51:58;;;;;;;41.38;21.35;;;;;;;20.65;64.34;99276.75;5090392;28;20067;-44
2022/10/12 08:54:28;;;;;;;85.25;29.92;;;;;;;20.74;63.75;99274.44;5092605;28;20066;-44
2022/10/12 08:56:54;;;;;;;53.55;24.20;;;;;;;20.78;63.60;99272.88;5095797;28;20016;-44
2022/10/12 08:59:20;;;;;;;36.15;20.92;;;;;;;20.87;63.10;99276.69;5095761;28;20028;-44
2022/10/12 09:01:52;;;;;;;33.85;19.25;;;;;;;20.94;62.69;99276.47;5094332;28;20065;-45
2022/10/12 09:04:55;;;;;;;36.55;20.30;;;;;;;20.91;63.01;99282.34;5096005;28;20394;-44
2022/10/12 09:07:54;;;;;;;33.45;20.02;;;;;;;20.87;62.71;99276.69;5095453;28;20038;-44
2022/10/12 09:10:44;;;;;;;33.25;20.00;;;;;;;20.86;62.53;99283.06;5084320;28;20035;-44
2022/10/12 09:13:28;;;;;;;33.40;19.98;;;;;;;20.79;62.24;99284.34;5094115;28;20032;-44
2022/10/12 09:16:22;;;;;;;37.95;19.85;;;;;;;20.77;62.22;99284.59;5095422;28;20943;-44
2022/10/12 09:18:53;;;;;;;34.17;18.33;;;;;;;21.03;61.99;99287.50;5095188;28;20086;-44
2022/10/12 09:21:23;;;;;;;35.85;20.63;;;;;;;21.06;60.92;99286.97;5111004;28;20028;-44
2022/10/12 09:23:49;;;;;;;33.55;19.27;;;;;;;20.96;61.66;99282.38;5095553;28;20107;-44
2022/10/12 09:26:18;;;;;;;30.85;19.48;;;;;;;21.09;60.28;99287.28;5095159;28;20023;-44
2022/10/12 09:28:55;;;;;;;31.40;19.48;;;;;;;20.74;60.92;99285.94;5093801;28;20102;-45
2022/10/12 09:31:36;;;;;;;31.48;19.90;;;;;;;20.27;61.58;99296.31;5076950;28;20489;-44
2022/10/12 09:34:07;;;;;;;39.28;23.92;;;;;;;19.75;63.34;99294.84;5095166;28;20028;-44
2022/10/12 09:36:40;;;;;;;40.47;23.65;;;;;;;19.59;65.13;99299.13;5093661;28;20024;-44
2022/10/12 09:39:20;;;;;;;35.25;20.50;;;;;;;19.91;65.32;99293.19;5093687;28;20024;-44
2022/10/12 09:41:48;;;;;;;31.50;19.52;;;;;;;20.26;64.55;99290.19;5093711;28;20031;-44
2022/10/12 09:44:35;;;;;;;33.58;19.33;;;;;;;20.51;62.83;99291.50;5094784;28;20024;-44
2022/10/12 09:47:03;;;;;;;29.58;17.38;;;;;;;20.66;62.76;99293.56;5093534;28;20036;-44
2022/10/12 09:49:49;;;;;;;25.88;18.95;;;;;;;20.50;62.05;99290.72;5094701;28;20024;-44
2022/10/12 09:52:18;;;;;;;34.78;16.95;;;;;;;20.25;63.87;99290.44;5094766;28;20494;-44
2022/10/12 09:54:54;;;;;;;31.08;16.25;;;;;;;20.50;63.62;99289.88;5094680;28;20078;-44
2022/10/12 09:57:42;;;;;;;32.85;17.92;;;;;;;20.72;62.80;99303.22;5094905;28;20133;-44
2022/10/12 10:00:30;;;;;;;23.48;14.65;;;;;;;21.00;62.26;99293.34;5094618;28;20023;-44
2022/10/12 10:02:57;;;;;;;23.15;15.73;;;;;;;21.15;61.62;99296.94;5094562;28;20048;-44
2022/10/12 10:05:33;;;;;;;17.20;14.73;;;;;;;21.35;61.60;99296.31;5094027;28;20020;-44
2022/10/12 10:08:14;;;;;;;22.25;15.75;;;;;;;21.29;60.77;99297.31;5093936;28;20024;-44
2022/10/12 10:10:51;;;;;;;30.45;17.35;;;;;;;21.20;61.67;99298.84;5093085;28;20055;-45
2022/10/12 10:13:19;;;;;;;25.42;17.75;;;;;;;21.10;63.14;99302.22;5094271;28;20093;-44
2022/10/12 10:15:48;;;;;;;28.83;15.45;;;;;;;20.97;62.76;99296.50;5094213;28;20026;-44
2022/10/12 10:18:20;;;;;;;24.70;15.60;;;;;;;20.86;62.98;99295.63;5093968;28;20110;-44
2022/10/12 10:20:56;;;;;;;29.15;16.60;;;;;;;20.84;62.67;99301.19;5094233;28;20032;-45
2022/10/12 10:23:54;;;;;;;25.02;16.63;;;;;;;21.11;61.90;99298.50;5092860;28;20063;-44
2022/10/12 10:26:22;;;;;;;25.35;16.95;;;;;;;21.33;61.16;99293.09;5072880;28;20047;-44
2022/10/12 10:28:56;;;;;;;32.75;16.35;;;;;;;21.65;60.00;99289.59;5093884;28;20024;-45
2022/10/12 10:31:26;;;;;;;30.77;16.00;;;;;;;22.07;58.91;99286.06;5092682;28;20028;-44
2022/10/12 10:34:15;;;;;;;28.90;16.42;;;;;;;22.51;57.67;99288.34;5093969;28;20034;-44
2022/10/12 10:36:55;;;;;;;28.20;15.38;;;;;;;22.86;56.60;99281.47;5085567;28;20127;-45
2022/10/12 10:39:30;;;;;;;24.17;15.85;;;;;;;23.23;54.72;99288.44;5092576;28;20035;-45
2022/10/12 10:42:07;;;;;;;22.05;14.95;;;;;;;23.31;54.92;99287.91;5093807;28;20050;-45
2022/10/12 10:44:35;;;;;;;26.48;16.08;;;;;;;23.02;54.57;99286.84;5093784;28;20460;-45
2022/10/12 10:47:09;;;;;;;24.40;16.27;;;;;;;22.94;54.85;99290.84;5093680;28;20028;-45
2022/10/12 10:49:48;;;;;;;23.37;15.97;;;;;;;22.93;55.12;99292.69;5092403;28;20056;-45
2022/10/12 10:52:27;;;;;;;24.77;15.30;;;;;;;23.26;54.09;99290.59;5092542;28;20365;-45
2022/10/12 10:55:11;;;;;;;21.73;14.55;;;;;;;23.50;53.20;99290.03;5093574;28;20391;-45
2022/10/12 10:57:45;;;;;;;25.15;14.38;;;;;;;23.64;52.43;99293.78;5092246;28;20028;-45
2022/10/12 11:00:15;;;;;;;24.13;13.05;;;;;;;23.83;52.32;99293.22;5093466;28;20103;-45
2022/10/12 11:02:55;;;;;;;19.63;11.90;;;;;;;24.05;51.52;99290.97;5093382;28;20026;-45
2022/10/12 11:05:48;;;;;;;19.35;13.23;;;;;;;24.55;50.76;99299.09;5093303;28;20035;-45
2022/10/12 11:08:22;;;;;;;22.10;12.35;;;;;;;25.50;48.58;99288.97;5093225;28;20629;-45
2022/10/12 11:11:03;;;;;;;18.33;11.57;;;;;;;26.10;46.85;99275.16;5093250;28;20031;-45
2022/10/12 11:13:34;;;;;;;20.48;11.23;;;;;;;25.96;46.52;99269.69;5093218;28;20020;-45
2022/10/12 11:16:15;;;;;;;22.65;12.35;;;;;;;25.63;46.83;99279.44;5093191;28;20103;-45
2022/10/12 11:18:44;;;;;;;31.02;12.88;;;;;;;25.37;47.28;99276.19;5091277;28;20077;-45
2022/10/12 11:21:46;;;;;;;31.40;12.68;;;;;;;25.14;47.70;99275.06;5091668;28;20031;-45
2022/10/12 11:24:27;;;;;;;27.60;12.40;;;;;;;24.93;48.18;99272.50;5091694;28;20059;-45
2022/10/12 11:27:09;;;;;;;20.42;12.00;;;;;;;24.76;48.59;99277.50;5092889;28;20024;-45
2022/10/12 11:29:35;;;;;;;20.00;11.45;;;;;;;24.84;48.54;99275.00;5092876;28;20074;-45
2022/10/12 11:32:27;;;;;;;22.40;12.55;;;;;;;24.81;48.04;99277.44;5091443;28;20032;-45
2022/10/12 11:34:59;;;;;;;24.58;13.02;;;;;;;24.49;48.37;99273.34;5085608;28;20111;-45